sensor_id;sensor_type;location;lat;lon;timestamp;pressure;altitude;pressure_sealevel;temperature;humidity
7962;BME280;4026;43.652;24.906;2023-02-11T00:00:11;101095.56;;;-5.48;100.00
7962;BME280;4026;43.652;24.906;2023-02-11T00:02:38;101099.66;;;-5.50;100.00
7962;BME280;4026;43.652;24.906;2023-02-11T00:05:06;101102.19;;;-5.49;100.00
7962;BME280;4026;43.652;24.906;2023-02-11T00:07:34;101109.69;;;-5.47;100.00
7962;BME280;4026;43.652;24.906;2023-02-11T00:10:02;101104.03;;;-5.41;100.00
7962;BME280;4026;43.652;24.906;2023-02-11T00:12:29;101098.19;;;-5.42;100.00
7962;BME280;4026;43.652;24.906;2023-02-11T00:14:56;101099.41;;;-5.59;100.00
7962;BME280;4026;43.652;24.906;2023-02-11T00:17:22;101100.78;;;-5.71;100.00
7962;BME280;4026;43.652;24.906;2023-02-11T00:19:50;101096.56;;;-5.73;100.00
7962;BME280;4026;43.652;24.906;2023-02-11T00:22:16;101091.69;;;-5.70;100.00
7962;BME280;4026;43.652;24.906;2023-02-11T00:24:45;101081.59;;;-5.73;100.00
7962;BME280;4026;43.652;24.906;2023-02-11T00:27:12;101082.06;;;-5.88;100.00
7962;BME280;4026;43.652;24.906;2023-02-11T00:29:38;101086.75;;;-6.00;100.00
7962;BME280;4026;43.652;24.906;2023-02-11T00:32:05;101085.75;;;-6.07;100.00
7962;BME280;4026;43.652;24.906;2023-02-11T00:34:33;101073.06;;;-6.15;100.00
7962;BME280;4026;43.652;24.906;2023-02-11T00:37:01;101076.38;;;-6.16;100.00
7962;BME280;4026;43.652;24.906;2023-02-11T00:39:28;101078.94;;;-6.12;100.00
7962;BME280;4026;43.652;24.906;2023-02-11T00:41:56;101082.41;;;-6.07;100.00
7962;BME280;4026;43.652;24.906;2023-02-11T00:44:23;101081.50;;;-6.09;100.00
7962;BME280;4026;43.652;24.906;2023-02-11T00:46:50;101072.28;;;-6.13;100.00
7962;BME280;4026;43.652;24.906;2023-02-11T00:49:17;101061.69;;;-6.06;100.00
7962;BME280;4026;43.652;24.906;2023-02-11T00:51:44;101058.53;;;-5.99;100.00
7962;BME280;4026;43.652;24.906;2023-02-11T00:54:11;101057.88;;;-5.92;100.00
7962;BME280;4026;43.652;24.906;2023-02-11T00:56:38;101054.63;;;-5.89;100.00
7962;BME280;4026;43.652;24.906;2023-02-11T00:59:06;101059.00;;;-5.81;100.00
7962;BME280;4026;43.652;24.906;2023-02-11T01:01:33;101055.72;;;-5.80;100.00
7962;BME280;4026;43.652;24.906;2023-02-11T01:04:00;101055.78;;;-5.77;100.00
7962;BME280;4026;43.652;24.906;2023-02-11T01:06:27;101067.38;;;-5.79;100.00
7962;BME280;4026;43.652;24.906;2023-02-11T01:08:54;101064.16;;;-5.75;100.00
7962;BME280;4026;43.652;24.906;2023-02-11T01:11:21;101059.84;;;-5.80;100.00
7962;BME280;4026;43.652;24.906;2023-02-11T01:13:49;101063.25;;;-5.77;100.00
7962;BME280;4026;43.652;24.906;2023-02-11T01:16:18;101070.03;;;-5.71;100.00
7962;BME280;4026;43.652;24.906;2023-02-11T01:18:46;101073.53;;;-5.64;100.00
7962;BME280;4026;43.652;24.906;2023-02-11T01:21:13;101072.75;;;-5.63;100.00
7962;BME280;4026;43.652;24.906;2023-02-11T01:23:40;101076.75;;;-5.70;100.00
7962;BME280;4026;43.652;24.906;2023-02-11T01:26:07;101075.09;;;-5.68;100.00
7962;BME280;4026;43.652;24.906;2023-02-11T01:28:34;101075.19;;;-5.65;100.00
7962;BME280;4026;43.652;24.906;2023-02-11T01:31:01;101066.25;;;-5.58;100.00
7962;BME280;4026;43.652;24.906;2023-02-11T01:33:30;101062.00;;;-5.61;100.00
7962;BME280;4026;43.652;24.906;2023-02-11T01:35:59;101066.88;;;-5.65;100.00
7962;BME280;4026;43.652;24.906;2023-02-11T01:38:27;101065.75;;;-5.77;100.00
7962;BME280;4026;43.652;24.906;2023-02-11T01:40:56;101058.03;;;-5.86;100.00
7962;BME280;4026;43.652;24.906;2023-02-11T01:43:24;101052.94;;;-5.91;100.00
7962;BME280;4026;43.652;24.906;2023-02-11T01:46:05;101056.28;;;-5.90;100.00
7962;BME280;4026;43.652;24.906;2023-02-11T01:48:42;101052.03;;;-5.94;100.00
7962;BME280;4026;43.652;24.906;2023-02-11T01:51:13;101053.75;;;-5.93;100.00
7962;BME280;4026;43.652;24.906;2023-02-11T01:53:43;101052.06;;;-5.93;100.00
7962;BME280;4026;43.652;24.906;2023-02-11T01:56:28;101052.16;;;-5.88;100.00
7962;BME280;4026;43.652;24.906;2023-02-11T01:59:17;101053.88;;;-5.87;100.00
7962;BME280;4026;43.652;24.906;2023-02-11T02:01:49;101051.47;;;-5.82;100.00
7962;BME280;4026;43.652;24.906;2023-02-11T02:04:20;101059.00;;;-5.81;100.00
7962;BME280;4026;43.652;24.906;2023-02-11T02:06:55;101059.72;;;-5.85;100.00
7962;BME280;4026;43.652;24.906;2023-02-11T02:09:26;101052.16;;;-5.88;100.00
7962;BME280;4026;43.652;24.906;2023-02-11T02:11:54;101050.41;;;-5.92;100.00
7962;BME280;4026;43.652;24.906;2023-02-11T02:14:21;101052.09;;;-5.91;100.00
7962;BME280;4026;43.652;24.906;2023-02-11T02:16:48;101048.75;;;-5.92;100.00
7962;BME280;4026;43.652;24.906;2023-02-11T02:19:39;101049.72;;;-5.86;100.00
7962;BME280;4026;43.652;24.906;2023-02-11T02:22:33;101057.31;;;-5.82;100.00
7962;BME280;4026;43.652;24.906;2023-02-11T02:25:38;101047.25;;;-5.85;100.00
7962;BME280;4026;43.652;24.906;2023-02-11T02:28:29;101047.09;;;-5.91;100.00
7962;BME280;4026;43.652;24.906;2023-02-11T02:31:18;101045.44;;;-5.92;100.00
7962;BME280;4026;43.652;24.906;2023-02-11T02:33:55;101052.09;;;-5.91;100.00
7962;BME280;4026;43.652;24.906;2023-02-11T02:36:32;101051.41;;;-5.85;100.00
7962;BME280;4026;43.652;24.906;2023-02-11T02:39:05;101054.88;;;-5.80;100.00
7962;BME280;4026;43.652;24.906;2023-02-11T02:41:34;101052.25;;;-5.85;100.00
7962;BME280;4026;43.652;24.906;2023-02-11T02:44:02;101051.38;;;-5.87;100.00
7962;BME280;4026;43.652;24.906;2023-02-11T02:46:31;101057.41;;;-5.79;100.00
7962;BME280;4026;43.652;24.906;2023-02-11T02:49:00;101057.50;;;-5.76;100.00
7962;BME280;4026;43.652;24.906;2023-02-11T02:51:55;101055.78;;;-5.77;100.00
7962;BME280;4026;43.652;24.906;2023-02-11T02:54:41;101051.56;;;-5.79;100.00
7962;BME280;4026;43.652;24.906;2023-02-11T02:57:23;101046.34;;;-5.88;100.00
7962;BME280;4026;43.652;24.906;2023-02-11T03:00:13;101046.75;;;-6.06;100.00
7962;BME280;4026;43.652;24.906;2023-02-11T03:02:49;101041.44;;;-6.19;100.00
7962;BME280;4026;43.652;24.906;2023-02-11T03:05:27;101044.72;;;-6.20;100.00
7962;BME280;4026;43.652;24.906;2023-02-11T03:08:01;101043.13;;;-6.18;100.00
7962;BME280;4026;43.652;24.906;2023-02-11T03:10:31;101044.81;;;-6.17;100.00
7962;BME280;4026;43.652;24.906;2023-02-11T03:12:59;101038.97;;;-6.17;100.00
7962;BME280;4026;43.652;24.906;2023-02-11T03:15:31;101041.69;;;-6.09;100.00
7962;BME280;4026;43.652;24.906;2023-02-11T03:18:01;101044.97;;;-6.10;100.00
7962;BME280;4026;43.652;24.906;2023-02-11T03:20:31;101046.75;;;-6.06;100.00
7962;BME280;4026;43.652;24.906;2023-02-11T03:23:05;101043.50;;;-6.04;100.00
7962;BME280;4026;43.652;24.906;2023-02-11T03:25:37;101035.25;;;-6.01;100.00
7962;BME280;4026;43.652;24.906;2023-02-11T03:28:12;101034.38;;;-6.03;100.00
7962;BME280;4026;43.652;24.906;2023-02-11T03:30:46;101036.84;;;-6.05;100.00
7962;BME280;4026;43.652;24.906;2023-02-11T03:33:19;101043.59;;;-5.99;100.00
7962;BME280;4026;43.652;24.906;2023-02-11T03:35:53;101033.53;;;-6.04;100.00
7962;BME280;4026;43.652;24.906;2023-02-11T03:38:24;101040.25;;;-6.01;100.00
7962;BME280;4026;43.652;24.906;2023-02-11T03:40:54;101039.22;;;-6.08;100.00
7962;BME280;4026;43.652;24.906;2023-02-11T03:43:25;101041.69;;;-6.09;100.00
7962;BME280;4026;43.652;24.906;2023-02-11T03:45:54;101038.28;;;-6.11;100.00
7962;BME280;4026;43.652;24.906;2023-02-11T03:48:24;101037.47;;;-6.12;100.00
7962;BME280;4026;43.652;24.906;2023-02-11T03:50:55;101035.81;;;-6.11;100.00
7962;BME280;4026;43.652;24.906;2023-02-11T03:53:23;101043.19;;;-6.15;100.00
7962;BME280;4026;43.652;24.906;2023-02-11T03:55:52;101035.03;;;-6.10;100.00
7962;BME280;4026;43.652;24.906;2023-02-11T03:58:20;101029.91;;;-6.15;100.00
7962;BME280;4026;43.652;24.906;2023-02-11T04:00:47;101027.94;;;-6.27;100.00
7962;BME280;4026;43.652;24.906;2023-02-11T04:03:14;101022.72;;;-6.36;100.00
7962;BME280;4026;43.652;24.906;2023-02-11T04:05:40;101027.59;;;-6.39;100.00
7962;BME280;4026;43.652;24.906;2023-02-11T04:08:09;101024.56;;;-6.29;100.00
7962;BME280;4026;43.652;24.906;2023-02-11T04:10:36;101019.50;;;-6.32;100.00
7962;BME280;4026;43.652;24.906;2023-02-11T04:13:03;101024.63;;;-6.26;100.00
7962;BME280;4026;43.652;24.906;2023-02-11T04:15:30;101016.31;;;-6.28;100.00
7962;BME280;4026;43.652;24.906;2023-02-11T04:17:57;101014.50;;;-6.32;100.00
7962;BME280;4026;43.652;24.906;2023-02-11T04:20:24;101011.03;;;-6.39;100.00
7962;BME280;4026;43.652;24.906;2023-02-11T04:22:50;101007.94;;;-6.30;100.00
7962;BME280;4026;43.652;24.906;2023-02-11T04:25:19;101000.50;;;-6.28;100.00
7962;BME280;4026;43.652;24.906;2023-02-11T04:27:46;101002.97;;;-6.30;100.00
7962;BME280;4026;43.652;24.906;2023-02-11T04:30:13;101008.03;;;-6.27;100.00
7962;BME280;4026;43.652;24.906;2023-02-11T04:32:40;100999.75;;;-6.26;100.00
7962;BME280;4026;43.652;24.906;2023-02-11T04:35:07;101000.50;;;-6.28;100.00
7962;BME280;4026;43.652;24.906;2023-02-11T04:37:34;100999.75;;;-6.26;100.00
7962;BME280;4026;43.652;24.906;2023-02-11T04:40:01;100995.66;;;-6.24;100.00
7962;BME280;4026;43.652;24.906;2023-02-11T04:42:29;100996.56;;;-6.22;100.00
7962;BME280;4026;43.652;24.906;2023-02-11T04:44:56;100999.16;;;-6.17;100.00
7962;BME280;4026;43.652;24.906;2023-02-11T04:47:23;101001.53;;;-6.22;100.00
7962;BME280;4026;43.652;24.906;2023-02-11T04:49:50;100991.66;;;-6.19;100.00
7962;BME280;4026;43.652;24.906;2023-02-11T04:52:17;100992.69;;;-6.10;100.00
7962;BME280;4026;43.652;24.906;2023-02-11T04:54:43;100991.81;;;-6.12;100.00
7962;BME280;4026;43.652;24.906;2023-02-11T04:57:10;100988.44;;;-6.15;100.00
7962;BME280;4026;43.652;24.906;2023-02-11T04:59:39;100986.00;;;-6.11;100.00
7962;BME280;4026;43.652;24.906;2023-02-11T05:02:06;100986.91;;;-6.09;100.00
7962;BME280;4026;43.652;24.906;2023-02-11T05:04:32;100990.28;;;-6.07;100.00
7962;BME280;4026;43.652;24.906;2023-02-11T05:06:59;100997.78;;;-6.06;100.00
7962;BME280;4026;43.652;24.906;2023-02-11T05:09:26;100995.13;;;-6.12;100.00
7962;BME280;4026;43.652;24.906;2023-02-11T05:11:53;100996.06;;;-6.08;100.00
7962;BME280;4026;43.652;24.906;2023-02-11T05:14:20;100996.88;;;-6.09;100.00
7962;BME280;4026;43.652;24.906;2023-02-11T05:16:48;101000.31;;;-6.04;100.00
7962;BME280;4026;43.652;24.906;2023-02-11T05:19:15;100995.13;;;-6.13;100.00
7962;BME280;4026;43.652;24.906;2023-02-11T05:21:42;100990.97;;;-6.13;100.00
7962;BME280;4026;43.652;24.906;2023-02-11T05:24:09;100991.00;;;-6.11;100.00
7962;BME280;4026;43.652;24.906;2023-02-11T05:26:35;100997.69;;;-6.10;100.00
7962;BME280;4026;43.652;24.906;2023-02-11T05:29:02;100993.56;;;-6.08;100.00
7962;BME280;4026;43.652;24.906;2023-02-11T05:31:29;100990.28;;;-6.07;100.00
7962;BME280;4026;43.652;24.906;2023-02-11T05:33:58;101000.47;;;-5.98;100.00
7962;BME280;4026;43.652;24.906;2023-02-11T05:36:28;100996.28;;;-5.99;100.00
7962;BME280;4026;43.652;24.906;2023-02-11T05:38:56;100998.78;;;-5.99;100.00
7962;BME280;4026;43.652;24.906;2023-02-11T05:41:23;100999.50;;;-6.03;100.00
7962;BME280;4026;43.652;24.906;2023-02-11T05:43:50;100997.03;;;-6.03;100.00
7962;BME280;4026;43.652;24.906;2023-02-11T05:46:17;101006.84;;;-6.08;100.00
7962;BME280;4026;43.652;24.906;2023-02-11T05:48:44;101008.06;;;-5.92;100.00
7962;BME280;4026;43.652;24.906;2023-02-11T05:51:12;101008.22;;;-5.87;100.00
7962;BME280;4026;43.652;24.906;2023-02-11T05:53:39;101013.25;;;-5.84;100.00
7962;BME280;4026;43.652;24.906;2023-02-11T05:56:06;101007.47;;;-5.83;100.00
7962;BME280;4026;43.652;24.906;2023-02-11T05:58:34;101014.34;;;-5.73;100.00
7962;BME280;4026;43.652;24.906;2023-02-11T06:01:03;101014.41;;;-5.72;100.00
7962;BME280;4026;43.652;24.906;2023-02-11T06:03:30;101017.84;;;-5.66;100.00
7962;BME280;4026;43.652;24.906;2023-02-11T06:05:57;101026.50;;;-5.52;100.00
7962;BME280;4026;43.652;24.906;2023-02-11T06:08:25;101022.50;;;-5.46;100.00
7962;BME280;4026;43.652;24.906;2023-02-11T06:10:52;101017.59;;;-5.42;100.00
7962;BME280;4026;43.652;24.906;2023-02-11T06:13:19;101015.25;;;-5.36;100.00
7962;BME280;4026;43.652;24.906;2023-02-11T06:15:55;101015.66;;;-5.19;100.00
7962;BME280;4026;43.652;24.906;2023-02-11T06:18:22;101016.59;;;-5.14;100.00
7962;BME280;4026;43.652;24.906;2023-02-11T06:20:49;101018.47;;;-5.06;100.00
7962;BME280;4026;43.652;24.906;2023-02-11T06:23:15;101020.31;;;-4.95;100.00
7962;BME280;4026;43.652;24.906;2023-02-11T06:25:44;101018.00;;;-4.88;100.00
7962;BME280;4026;43.652;24.906;2023-02-11T06:28:10;101027.41;;;-4.76;100.00
7962;BME280;4026;43.652;24.906;2023-02-11T06:30:37;101018.69;;;-4.54;100.00
7962;BME280;4026;43.652;24.906;2023-02-11T06:33:04;101023.19;;;-4.39;100.00
7962;BME280;4026;43.652;24.906;2023-02-11T06:35:31;101020.38;;;-4.12;100.00
7962;BME280;4026;43.652;24.906;2023-02-11T06:37:59;101019.94;;;-3.90;100.00
7962;BME280;4026;43.652;24.906;2023-02-11T06:40:26;101025.47;;;-3.59;100.00
7962;BME280;4026;43.652;24.906;2023-02-11T06:42:55;101031.03;;;-3.24;100.00
7962;BME280;4026;43.652;24.906;2023-02-11T06:45:21;101032.44;;;-2.83;100.00
7962;BME280;4026;43.652;24.906;2023-02-11T06:47:50;101028.84;;;-2.38;100.00
7962;BME280;4026;43.652;24.906;2023-02-11T06:50:17;101030.13;;;-1.98;100.00
7962;BME280;4026;43.652;24.906;2023-02-11T06:52:45;101022.13;;;-1.62;98.32
7962;BME280;4026;43.652;24.906;2023-02-11T06:55:12;101028.31;;;-1.14;95.50
7962;BME280;4026;43.652;24.906;2023-02-11T06:57:39;101026.00;;;-0.86;92.75
7962;BME280;4026;43.652;24.906;2023-02-11T07:00:09;101022.06;;;-0.35;91.13
7962;BME280;4026;43.652;24.906;2023-02-11T07:02:36;101023.84;;;0.06;88.40
7962;BME280;4026;43.652;24.906;2023-02-11T07:05:04;101023.88;;;0.46;84.62
7962;BME280;4026;43.652;24.906;2023-02-11T07:07:31;101026.41;;;0.60;81.71
7962;BME280;4026;43.652;24.906;2023-02-11T07:09:58;101023.06;;;0.59;80.05
7962;BME280;4026;43.652;24.906;2023-02-11T07:12:25;101024.72;;;0.30;80.91
7962;BME280;4026;43.652;24.906;2023-02-11T07:14:52;101035.59;;;0.26;78.59
7962;BME280;4026;43.652;24.906;2023-02-11T07:17:20;101022.19;;;0.70;78.75
7962;BME280;4026;43.652;24.906;2023-02-11T07:19:47;101018.69;;;1.41;77.67
7962;BME280;4026;43.652;24.906;2023-02-11T07:22:14;101018.59;;;1.64;75.29
7962;BME280;4026;43.652;24.906;2023-02-11T07:24:41;101020.81;;;2.19;74.05
7962;BME280;4026;43.652;24.906;2023-02-11T07:27:08;101021.38;;;2.57;70.91
7962;BME280;4026;43.652;24.906;2023-02-11T07:29:35;101021.81;;;3.03;69.78
7962;BME280;4026;43.652;24.906;2023-02-11T07:32:01;101019.06;;;3.23;66.94
7962;BME280;4026;43.652;24.906;2023-02-11T07:34:30;101014.56;;;3.48;64.82
7962;BME280;4026;43.652;24.906;2023-02-11T07:36:57;101010.13;;;3.67;63.86
7962;BME280;4026;43.652;24.906;2023-02-11T07:39:24;101012.97;;;3.41;64.13
7962;BME280;4026;43.652;24.906;2023-02-11T07:41:51;101015.31;;;3.55;62.05
7962;BME280;4026;43.652;24.906;2023-02-11T07:44:18;101016.09;;;3.61;63.20
7962;BME280;4026;43.652;24.906;2023-02-11T07:46:45;101019.56;;;3.53;61.65
7962;BME280;4026;43.652;24.906;2023-02-11T07:49:13;101020.97;;;3.75;60.61
7962;BME280;4026;43.652;24.906;2023-02-11T07:51:42;101007.88;;;4.06;60.80
7962;BME280;4026;43.652;24.906;2023-02-11T07:54:09;101011.41;;;3.96;62.38
7962;BME280;4026;43.652;24.906;2023-02-11T07:56:37;101014.50;;;4.16;58.74
7962;BME280;4026;43.652;24.906;2023-02-11T07:59:03;101014.06;;;4.44;58.42
7962;BME280;4026;43.652;24.906;2023-02-11T08:01:30;101006.22;;;4.05;58.13
7962;BME280;4026;43.652;24.906;2023-02-11T08:03:59;101004.28;;;4.21;58.98
7962;BME280;4026;43.652;24.906;2023-02-11T08:06:29;101008.88;;;4.50;58.85
7962;BME280;4026;43.652;24.906;2023-02-11T08:09:03;101014.63;;;5.09;57.89
7962;BME280;4026;43.652;24.906;2023-02-11T08:11:30;101008.19;;;3.84;57.77
7962;BME280;4026;43.652;24.906;2023-02-11T08:13:57;101005.22;;;4.17;59.94
7962;BME280;4026;43.652;24.906;2023-02-11T08:16:25;100996.44;;;4.86;59.45
7962;BME280;4026;43.652;24.906;2023-02-11T08:18:55;100990.63;;;5.26;56.99
7962;BME280;4026;43.652;24.906;2023-02-11T08:21:22;100989.63;;;4.41;55.68
7962;BME280;4026;43.652;24.906;2023-02-11T08:23:50;100986.69;;;3.53;59.02
7962;BME280;4026;43.652;24.906;2023-02-11T08:26:20;100991.63;;;4.21;60.55
7962;BME280;4026;43.652;24.906;2023-02-11T08:28:48;101001.19;;;5.04;56.59
7962;BME280;4026;43.652;24.906;2023-02-11T08:31:16;100990.63;;;5.26;57.65
7962;BME280;4026;43.652;24.906;2023-02-11T08:33:44;100992.16;;;5.76;55.83
7962;BME280;4026;43.652;24.906;2023-02-11T08:36:12;100989.81;;;6.42;54.46
7962;BME280;4026;43.652;24.906;2023-02-11T08:38:40;100987.94;;;6.48;54.31
7962;BME280;4026;43.652;24.906;2023-02-11T08:41:07;100983.03;;;6.06;52.97
7962;BME280;4026;43.652;24.906;2023-02-11T08:43:36;100978.66;;;5.34;53.33
7962;BME280;4026;43.652;24.906;2023-02-11T08:46:06;100981.44;;;4.24;56.83
7962;BME280;4026;43.652;24.906;2023-02-11T08:48:33;100979.91;;;4.66;59.07
7962;BME280;4026;43.652;24.906;2023-02-11T08:51:05;100991.97;;;5.00;56.65
7962;BME280;4026;43.652;24.906;2023-02-11T08:53:32;100980.25;;;5.38;54.43
7962;BME280;4026;43.652;24.906;2023-02-11T08:55:59;100983.00;;;4.32;55.95
7962;BME280;4026;43.652;24.906;2023-02-11T08:58:26;100986.47;;;3.68;57.73
7962;BME280;4026;43.652;24.906;2023-02-11T09:00:54;100987.28;;;4.27;58.71
7962;BME280;4026;43.652;24.906;2023-02-11T09:03:21;100982.63;;;4.03;58.62
7962;BME280;4026;43.652;24.906;2023-02-11T09:05:49;100981.34;;;4.31;58.31
7962;BME280;4026;43.652;24.906;2023-02-11T09:08:17;100977.03;;;4.86;59.31
7962;BME280;4026;43.652;24.906;2023-02-11T09:10:44;100982.28;;;4.75;57.80
7962;BME280;4026;43.652;24.906;2023-02-11T09:13:12;100978.72;;;5.31;57.53
7962;BME280;4026;43.652;24.906;2023-02-11T09:15:39;100972.47;;;5.86;55.79
7962;BME280;4026;43.652;24.906;2023-02-11T09:18:07;100962.44;;;5.80;55.92
7962;BME280;4026;43.652;24.906;2023-02-11T09:20:34;100966.50;;;5.48;54.79
7962;BME280;4026;43.652;24.906;2023-02-11T09:23:01;100970.63;;;5.94;54.67
7962;BME280;4026;43.652;24.906;2023-02-11T09:25:27;100965.56;;;5.52;55.45
7962;BME280;4026;43.652;24.906;2023-02-11T09:27:54;100973.69;;;5.68;55.01
7962;BME280;4026;43.652;24.906;2023-02-11T09:30:21;100959.88;;;6.19;54.50
7962;BME280;4026;43.652;24.906;2023-02-11T09:32:48;100965.56;;;6.63;52.40
7962;BME280;4026;43.652;24.906;2023-02-11T09:35:16;100954.91;;;6.48;52.74
7962;BME280;4026;43.652;24.906;2023-02-11T09:37:43;100949.22;;;6.40;52.57
7962;BME280;4026;43.652;24.906;2023-02-11T09:40:11;100936.97;;;6.87;51.97
7962;BME280;4026;43.652;24.906;2023-02-11T09:42:45;100940.00;;;7.00;50.60
7962;BME280;4026;43.652;24.906;2023-02-11T09:45:17;100945.13;;;7.28;49.42
7962;BME280;4026;43.652;24.906;2023-02-11T09:47:47;100939.41;;;6.25;52.19
7962;BME280;4026;43.652;24.906;2023-02-11T09:50:21;100923.81;;;7.02;50.77
7962;BME280;4026;43.652;24.906;2023-02-11T09:52:54;100918.28;;;7.18;51.07
7962;BME280;4026;43.652;24.906;2023-02-11T09:55:25;100921.53;;;7.23;51.67
7962;BME280;4026;43.652;24.906;2023-02-11T09:57:53;100907.13;;;7.52;52.24
7962;BME280;4026;43.652;24.906;2023-02-11T10:00:23;100909.03;;;7.15;50.55
7962;BME280;4026;43.652;24.906;2023-02-11T10:03:17;100901.31;;;6.89;49.63
7962;BME280;4026;43.652;24.906;2023-02-11T10:06:01;100890.19;;;6.62;51.58
7962;BME280;4026;43.652;24.906;2023-02-11T10:08:39;100898.25;;;5.75;52.45
7962;BME280;4026;43.652;24.906;2023-02-11T10:11:16;100887.09;;;6.18;53.83
7962;BME280;4026;43.652;24.906;2023-02-11T10:13:52;100881.75;;;5.93;54.09
7962;BME280;4026;43.652;24.906;2023-02-11T10:16:40;100870.28;;;7.07;52.16
7962;BME280;4026;43.652;24.906;2023-02-11T10:19:40;100868.84;;;7.55;50.51
7962;BME280;4026;43.652;24.906;2023-02-11T10:22:17;100862.53;;;7.93;48.50
7962;BME280;4026;43.652;24.906;2023-02-11T10:24:50;100855.56;;;8.50;47.43
7962;BME280;4026;43.652;24.906;2023-02-11T10:27:20;100862.63;;;7.37;47.25
7962;BME280;4026;43.652;24.906;2023-02-11T10:29:53;100855.97;;;6.42;50.57
7962;BME280;4026;43.652;24.906;2023-02-11T10:32:28;100852.25;;;7.15;49.69
7962;BME280;4026;43.652;24.906;2023-02-11T10:35:01;100848.84;;;7.16;48.95
7962;BME280;4026;43.652;24.906;2023-02-11T10:37:30;100845.97;;;6.36;50.82
7962;BME280;4026;43.652;24.906;2023-02-11T10:39:57;100846.06;;;6.95;50.36
7962;BME280;4026;43.652;24.906;2023-02-11T10:42:24;100834.59;;;7.10;50.36
7962;BME280;4026;43.652;24.906;2023-02-11T10:44:56;100834.94;;;7.54;50.45
7962;BME280;4026;43.652;24.906;2023-02-11T10:47:28;100827.63;;;6.87;49.91
7962;BME280;4026;43.652;24.906;2023-02-11T10:49:57;100822.53;;;6.26;50.59
7962;BME280;4026;43.652;24.906;2023-02-11T10:52:30;100826.72;;;7.18;51.29
7962;BME280;4026;43.652;24.906;2023-02-11T10:55:00;100827.72;;;7.40;49.60
7962;BME280;4026;43.652;24.906;2023-02-11T10:57:30;100813.66;;;7.00;49.16
7962;BME280;4026;43.652;24.906;2023-02-11T11:00:00;100804.81;;;5.90;50.80
7962;BME280;4026;43.652;24.906;2023-02-11T11:02:29;100809.03;;;6.85;50.74
7962;BME280;4026;43.652;24.906;2023-02-11T11:05:00;100803.25;;;6.50;50.79
7962;BME280;4026;43.652;24.906;2023-02-11T11:07:32;100795.44;;;6.27;51.67
7962;BME280;4026;43.652;24.906;2023-02-11T11:10:01;100801.00;;;5.73;52.97
7962;BME280;4026;43.652;24.906;2023-02-11T11:12:46;100787.25;;;6.16;51.75
7962;BME280;4026;43.652;24.906;2023-02-11T11:15:17;100785.59;;;6.15;52.03
7962;BME280;4026;43.652;24.906;2023-02-11T11:17:45;100776.75;;;5.62;53.53
7962;BME280;4026;43.652;24.906;2023-02-11T11:20:15;100775.44;;;6.15;55.27
7962;BME280;4026;43.652;24.906;2023-02-11T11:22:49;100774.50;;;6.48;52.79
7962;BME280;4026;43.652;24.906;2023-02-11T11:25:21;100774.75;;;6.41;50.11
7962;BME280;4026;43.652;24.906;2023-02-11T11:27:49;100761.69;;;5.89;51.27
7962;BME280;4026;43.652;24.906;2023-02-11T11:30:17;100764.03;;;5.30;52.62
7962;BME280;4026;43.652;24.906;2023-02-11T11:32:44;100760.59;;;5.31;51.87
7962;BME280;4026;43.652;24.906;2023-02-11T11:35:25;100755.38;;;6.05;53.59
7962;BME280;4026;43.652;24.906;2023-02-11T11:37:56;100762.88;;;5.76;52.49
7962;BME280;4026;43.652;24.906;2023-02-11T11:40:26;100750.75;;;5.87;51.51
7962;BME280;4026;43.652;24.906;2023-02-11T11:43:14;100742.69;;;5.01;53.28
7962;BME280;4026;43.652;24.906;2023-02-11T11:45:53;100733.38;;;5.72;52.61
7962;BME280;4026;43.652;24.906;2023-02-11T11:48:24;100728.28;;;6.06;52.19
7962;BME280;4026;43.652;24.906;2023-02-11T11:50:55;100732.31;;;6.72;52.50
7962;BME280;4026;43.652;24.906;2023-02-11T11:53:29;100728.44;;;6.00;51.34
7962;BME280;4026;43.652;24.906;2023-02-11T11:56:02;100717.69;;;5.57;53.11
7962;BME280;4026;43.652;24.906;2023-02-11T11:58:30;100707.59;;;5.54;53.49
7962;BME280;4026;43.652;24.906;2023-02-11T12:01:08;100711.44;;;5.71;55.13
7962;BME280;4026;43.652;24.906;2023-02-11T12:04:12;100709.06;;;5.96;55.54
7962;BME280;4026;43.652;24.906;2023-02-11T12:07:01;100695.31;;;5.72;54.90
7962;BME280;4026;43.652;24.906;2023-02-11T12:09:40;100702.75;;;6.10;52.35
7962;BME280;4026;43.652;24.906;2023-02-11T12:12:20;100694.91;;;5.87;52.90
7962;BME280;4026;43.652;24.906;2023-02-11T12:14:57;100690.81;;;5.50;54.48
7962;BME280;4026;43.652;24.906;2023-02-11T12:17:38;100691.03;;;5.41;51.51
7962;BME280;4026;43.652;24.906;2023-02-11T12:20:20;100688.28;;;5.14;54.99
7962;BME280;4026;43.652;24.906;2023-02-11T12:22:59;100685.28;;;5.34;54.33
7962;BME280;4026;43.652;24.906;2023-02-11T12:25:34;100674.50;;;5.90;55.18
7962;BME280;4026;43.652;24.906;2023-02-11T12:28:12;100678.69;;;5.94;52.35
7962;BME280;4026;43.652;24.906;2023-02-11T12:30:59;100674.22;;;5.37;55.46
7962;BME280;4026;43.652;24.906;2023-02-11T12:33:43;100670.19;;;5.62;55.18
7962;BME280;4026;43.652;24.906;2023-02-11T12:36:26;100665.31;;;5.20;55.37
7962;BME280;4026;43.652;24.906;2023-02-11T12:39:07;100661.28;;;5.48;56.69
7962;BME280;4026;43.652;24.906;2023-02-11T12:41:51;100656.75;;;5.90;55.20
7962;BME280;4026;43.652;24.906;2023-02-11T12:45:07;100654.31;;;6.17;53.95
7962;BME280;4026;43.652;24.906;2023-02-11T12:47:40;100654.19;;;5.90;54.49
7962;BME280;4026;43.652;24.906;2023-02-11T12:50:17;100645.09;;;5.19;55.74
7962;BME280;4026;43.652;24.906;2023-02-11T12:53:01;100656.69;;;4.93;54.73
7962;BME280;4026;43.652;24.906;2023-02-11T12:55:34;100651.38;;;4.68;56.78
7962;BME280;4026;43.652;24.906;2023-02-11T12:58:04;100653.34;;;4.91;57.30
7962;BME280;4026;43.652;24.906;2023-02-11T13:00:41;100643.19;;;5.27;57.16
7962;BME280;4026;43.652;24.906;2023-02-11T13:03:14;100642.06;;;5.39;56.82
7962;BME280;4026;43.652;24.906;2023-02-11T13:05:47;100645.31;;;5.44;55.91
7962;BME280;4026;43.652;24.906;2023-02-11T13:08:20;100629.22;;;5.12;55.83
7962;BME280;4026;43.652;24.906;2023-02-11T13:10:52;100622.91;;;5.58;55.81
7962;BME280;4026;43.652;24.906;2023-02-11T13:13:25;100622.22;;;5.20;55.26
7962;BME280;4026;43.652;24.906;2023-02-11T13:15:58;100615.56;;;4.82;59.24
7962;BME280;4026;43.652;24.906;2023-02-11T13:18:46;100607.47;;;5.02;57.48